Time;durP1;ratioP1;P1;durP2;ratioP2;P2;SDS_P1;SDS_P2;PMS_P1;PMS_P2;Temp;Humidity;BMP_temperature;BMP_pressure;BME280_temperature;BME280_humidity;BME280_pressure;Samples;Min_cycle;Max_cycle;Signal;HPM_P1;HPM_P2
2022/06/05 00:02:38;;;;;;;11.25;7.05;;;13.00;99.90;;;;;;5004233;28;20331;-64
2022/06/05 00:05:12;;;;;;;12.30;8.30;;;13.00;99.90;;;;;;5005522;28;20065;-64
2022/06/05 00:07:59;;;;;;;15.65;9.00;;;12.80;99.90;;;;;;5004852;28;20041;-66
2022/06/05 00:10:36;;;;;;;13.70;8.48;;;12.80;99.90;;;;;;4989516;28;20038;-64
2022/06/05 00:13:45;;;;;;;12.40;8.07;;;12.80;99.90;;;;;;5004963;28;20046;-64
2022/06/05 00:16:13;;;;;;;11.25;7.43;;;12.70;99.90;;;;;;5013480;28;20114;-65
2022/06/05 00:18:41;;;;;;;11.43;8.30;;;12.70;99.90;;;;;;5005681;28;20049;-64
2022/06/05 00:21:09;;;;;;;15.00;8.48;;;12.80;99.90;;;;;;4984249;28;20061;-64
2022/06/05 00:23:35;;;;;;;15.40;8.35;;;12.80;99.90;;;;;;4985341;28;20128;-64
2022/06/05 00:26:19;;;;;;;13.30;7.90;;;12.80;99.90;;;;;;4984325;28;20130;-65
2022/06/05 00:29:11;;;;;;;15.68;8.18;;;12.60;99.90;;;;;;4992194;28;20037;-64
2022/06/05 00:31:52;;;;;;;13.05;9.30;;;12.60;99.90;;;;;;5004558;28;20069;-64
2022/06/05 00:34:18;;;;;;;13.90;9.13;;;12.60;99.90;;;;;;5005135;28;20103;-65
2022/06/05 00:37:00;;;;;;;14.32;8.65;;;12.60;99.90;;;;;;5002285;28;20053;-66
2022/06/05 00:39:35;;;;;;;11.20;8.00;;;12.60;99.90;;;;;;5003677;28;20037;-64
2022/06/05 00:42:05;;;;;;;;;;;12.60;99.90;;;;;;5003801;28;20038;-65
2022/06/05 00:44:43;;;;;;;12.40;9.05;;;12.50;99.90;;;;;;5003755;28;19917;-64
2022/06/05 00:47:12;;;;;;;11.63;8.98;;;12.60;99.90;;;;;;5000925;28;20121;-65
2022/06/05 00:49:48;;;;;;;15.88;9.88;;;12.50;99.90;;;;;;5003208;28;20050;-66
2022/06/05 00:52:15;;;;;;;12.23;8.80;;;12.50;99.90;;;;;;5000713;28;20052;-65
2022/06/05 00:54:40;;;;;;;12.50;9.35;;;12.60;99.90;;;;;;5002850;28;20087;-65
2022/06/05 00:57:09;;;;;;;11.18;9.00;;;12.60;99.90;;;;;;5005273;28;20147;-65
2022/06/05 00:59:36;;;;;;;14.00;9.15;;;12.60;99.90;;;;;;5003720;28;20092;-64
2022/06/05 01:02:02;;;;;;;13.35;9.35;;;12.50;99.90;;;;;;5002147;28;20540;-65
2022/06/05 01:04:31;;;;;;;14.98;9.55;;;12.50;99.90;;;;;;5016227;28;20065;-64
2022/06/05 01:06:57;;;;;;;13.40;9.57;;;12.50;99.90;;;;;;4984227;28;20124;-65
2022/06/05 01:09:22;;;;;;;13.65;9.77;;;12.40;99.90;;;;;;5003720;28;20494;-64
2022/06/05 01:12:00;;;;;;;15.02;9.63;;;12.50;99.90;;;;;;5004013;28;20040;-64
2022/06/05 01:15:03;;;;;;;14.15;9.02;;;12.40;99.90;;;;;;5004540;28;20048;-66
2022/06/05 01:17:39;;;;;;;15.73;9.63;;;12.50;99.90;;;;;;5004707;28;20038;-66
2022/06/05 01:20:24;;;;;;;13.45;8.07;;;12.50;99.90;;;;;;5002565;28;20070;-64
2022/06/05 01:23:09;;;;;;;12.65;8.02;;;12.50;99.90;;;;;;5002878;28;20038;-64
2022/06/05 01:25:47;;;;;;;14.63;9.85;;;12.50;99.90;;;;;;5001534;28;20062;-65
2022/06/05 01:28:24;;;;;;;12.50;9.70;;;12.30;99.90;;;;;;5000659;28;20411;-65
2022/06/05 01:31:18;;;;;;;11.73;8.45;;;12.40;99.90;;;;;;4983727;28;20038;-64
2022/06/05 01:33:58;;;;;;;16.40;10.13;;;12.30;99.90;;;;;;4985646;28;20379;-64
2022/06/05 01:36:40;;;;;;;14.30;9.43;;;12.40;99.90;;;;;;5002422;28;20421;-63
2022/06/05 01:39:23;;;;;;;15.93;10.15;;;12.30;99.90;;;;;;5003794;28;20049;-64
2022/06/05 01:42:02;;;;;;;13.27;8.88;;;12.40;99.90;;;;;;4999474;28;20120;-66
2022/06/05 01:44:42;;;;;;;13.55;9.55;;;12.40;99.90;;;;;;5002718;28;20116;-64
2022/06/05 01:47:16;;;;;;;14.25;10.60;;;12.40;99.90;;;;;;4999702;28;20060;-64
2022/06/05 01:49:53;;;;;;;13.40;9.88;;;12.40;99.90;;;;;;5002518;28;20046;-64
2022/06/05 01:52:25;;;;;;;17.20;10.80;;;12.30;99.90;;;;;;5003356;28;20064;-64
2022/06/05 01:55:18;;;;;;;14.63;10.93;;;12.40;99.90;;;;;;5014430;28;20100;-66
2022/06/05 01:57:44;;;;;;;16.33;10.23;;;12.20;99.90;;;;;;5001841;28;20034;-64
2022/06/05 02:00:17;;;;;;;12.68;10.85;;;12.30;99.90;;;;;;5002725;28;20099;-65
2022/06/05 02:03:05;;;;;;;12.67;9.70;;;12.30;99.90;;;;;;5005633;28;20050;-64
2022/06/05 02:05:38;;;;;;;18.77;11.20;;;12.40;99.90;;;;;;4999762;28;20039;-65
2022/06/05 02:08:15;;;;;;;16.65;10.65;;;12.40;99.90;;;;;;5002220;28;20402;-64
2022/06/05 02:11:02;;;;;;;13.55;10.98;;;12.40;99.90;;;;;;4999531;28;20038;-64
2022/06/05 02:13:28;;;;;;;14.10;10.15;;;12.40;99.90;;;;;;5018281;28;20046;-64
2022/06/05 02:15:54;;;;;;;15.27;11.73;;;12.40;99.90;;;;;;5001477;28;20347;-65
2022/06/05 02:18:20;;;;;;;16.80;11.85;;;12.40;99.90;;;;;;5003846;28;20053;-64
2022/06/05 02:20:47;;;;;;;15.40;10.90;;;12.40;99.90;;;;;;5002174;28;20338;-64
2022/06/05 02:23:17;;;;;;;16.38;12.50;;;12.30;99.90;;;;;;5013397;28;20047;-65
2022/06/05 02:25:43;;;;;;;16.23;10.82;;;12.30;99.90;;;;;;5001859;28;20046;-65
2022/06/05 02:28:15;;;;;;;18.77;12.68;;;12.40;99.90;;;;;;4980078;28;20042;-64
2022/06/05 02:31:03;;;;;;;20.73;12.93;;;12.50;99.90;;;;;;5001741;28;20069;-64
2022/06/05 02:33:34;;;;;;;18.30;12.75;;;12.40;99.90;;;;;;5012331;28;20061;-64
2022/06/05 02:36:06;;;;;;;18.15;13.02;;;12.30;99.90;;;;;;5000738;28;20068;-65
2022/06/05 02:38:46;;;;;;;19.55;13.10;;;12.30;99.90;;;;;;4988275;28;20122;-64
2022/06/05 02:41:26;;;;;;;17.95;13.05;;;12.30;99.90;;;;;;4999831;28;20045;-65
2022/06/05 02:47:20;;;;;;;15.65;12.65;;;12.50;99.90;;;;;;5001982;28;20773;-64
2022/06/05 02:50:13;;;;;;;20.88;13.10;;;12.40;99.90;;;;;;4984828;28;20037;-64
2022/06/05 02:52:41;;;;;;;16.13;11.73;;;12.50;99.90;;;;;;4988765;28;20049;-64
2022/06/05 02:55:13;;;;;;;17.33;12.77;;;12.50;99.90;;;;;;4998333;28;20053;-64
2022/06/05 02:57:39;;;;;;;15.68;11.27;;;12.40;99.90;;;;;;5001702;28;20030;-64
2022/06/05 03:00:10;;;;;;;18.00;13.35;;;12.50;99.90;;;;;;5003877;28;20058;-64
2022/06/05 03:05:20;;;;;;;17.23;12.38;;;12.40;99.90;;;;;;5004760;28;20053;-64
2022/06/05 03:07:46;;;;;;;16.90;12.27;;;12.40;99.90;;;;;;5006569;28;20037;-64
2022/06/05 03:10:13;;;;;;;15.05;11.63;;;12.40;99.90;;;;;;5005534;28;20060;-65
2022/06/05 03:12:38;;;;;;;16.45;12.27;;;12.50;99.90;;;;;;5004180;28;20049;-64
2022/06/05 03:15:06;;;;;;;18.58;13.50;;;12.60;99.90;;;;;;5000712;28;20376;-64
2022/06/05 03:17:32;;;;;;;16.45;12.20;;;12.50;99.90;;;;;;5004223;28;20062;-64
2022/06/05 03:19:58;;;;;;;16.95;11.90;;;12.50;99.90;;;;;;5004467;28;20366;-64
2022/06/05 03:22:25;;;;;;;15.40;12.38;;;12.40;99.90;;;;;;4985975;28;20049;-64
2022/06/05 03:24:51;;;;;;;17.45;12.73;;;12.40;99.90;;;;;;5004669;28;20041;-64
2022/06/05 03:27:19;;;;;;;16.67;12.57;;;12.50;99.90;;;;;;5004114;28;20042;-65
2022/06/05 03:29:45;;;;;;;17.08;12.43;;;12.50;99.90;;;;;;5004053;28;20050;-64
2022/06/05 03:32:11;;;;;;;18.15;13.00;;;12.50;99.90;;;;;;5004129;28;20054;-64
2022/06/05 03:34:37;;;;;;;19.67;12.80;;;12.40;99.90;;;;;;5005488;28;20061;-64
2022/06/05 03:37:04;;;;;;;14.52;10.65;;;12.50;99.90;;;;;;5005736;28;20230;-65
2022/06/05 03:39:34;;;;;;;17.88;12.13;;;12.50;99.90;;;;;;5004954;28;20385;-64
2022/06/05 03:41:59;;;;;;;17.08;12.65;;;12.70;99.90;;;;;;5004648;28;20030;-65
2022/06/05 03:44:26;;;;;;;16.23;12.45;;;12.60;99.90;;;;;;5003613;28;20038;-64
2022/06/05 03:46:52;;;;;;;15.18;11.57;;;12.60;99.90;;;;;;5004185;28;20042;-63
2022/06/05 03:49:18;;;;;;;18.20;12.43;;;12.60;99.90;;;;;;5004167;28;20512;-64
2022/06/05 03:51:47;;;;;;;17.02;12.68;;;12.60;99.90;;;;;;5005305;28;20030;-64
2022/06/05 03:54:13;;;;;;;18.50;12.80;;;12.60;99.90;;;;;;5016682;28;20121;-65
2022/06/05 03:56:39;;;;;;;17.35;12.98;;;12.70;99.90;;;;;;5005216;28;20125;-64
2022/06/05 03:59:05;;;;;;;17.45;12.55;;;12.70;99.90;;;;;;5002623;28;20034;-65
2022/06/05 04:01:31;;;;;;;19.67;12.63;;;12.80;99.90;;;;;;4986988;28;20428;-64
2022/06/05 04:03:56;;;;;;;21.17;13.52;;;12.80;99.90;;;;;;5004293;28;20125;-65
2022/06/05 04:06:28;;;;;;;17.88;12.10;;;12.70;99.90;;;;;;5000754;28;20435;-64
2022/06/05 04:08:55;;;;;;;17.60;11.40;;;12.80;99.90;;;;;;5002818;28;20061;-65
2022/06/05 04:11:21;;;;;;;17.30;12.55;;;12.80;99.90;;;;;;5005218;28;20429;-64
2022/06/05 04:13:48;;;;;;;16.35;11.90;;;13.00;99.90;;;;;;5005919;28;20056;-64
2022/06/05 04:16:20;;;;;;;14.27;10.88;;;13.00;99.90;;;;;;5003351;28;20042;-64
2022/06/05 04:18:46;;;;;;;17.50;13.77;;;13.10;99.90;;;;;;5003349;28;20052;-64
2022/06/05 04:21:15;;;;;;;15.65;11.73;;;13.10;99.90;;;;;;5002823;28;20562;-65
2022/06/05 04:23:41;;;;;;;16.58;12.57;;;13.10;99.90;;;;;;5003443;28;20201;-65
2022/06/05 04:26:09;;;;;;;16.77;10.85;;;13.10;99.90;;;;;;5005545;28;20171;-65
2022/06/05 04:28:36;;;;;;;16.50;11.85;;;13.20;99.90;;;;;;5004417;28;20042;-63
2022/06/05 04:31:03;;;;;;;20.00;13.60;;;13.20;99.90;;;;;;5002693;28;20050;-63
2022/06/05 04:33:32;;;;;;;17.30;12.05;;;13.20;99.90;;;;;;5002512;28;20060;-66
2022/06/05 04:35:58;;;;;;;17.83;12.60;;;13.30;99.90;;;;;;5003118;28;20057;-64
2022/06/05 04:38:24;;;;;;;15.15;12.52;;;13.20;99.90;;;;;;5002853;28;20042;-64
2022/06/05 04:40:50;;;;;;;17.85;12.10;;;13.30;99.90;;;;;;5003925;28;20045;-65
2022/06/05 04:43:15;;;;;;;17.55;13.35;;;13.30;99.90;;;;;;5007941;28;20035;-64
2022/06/05 04:45:44;;;;;;;17.02;13.02;;;13.30;99.90;;;;;;4983994;28;20046;-65
2022/06/05 04:48:10;;;;;;;15.63;12.20;;;13.30;99.90;;;;;;5000532;28;20052;-64
2022/06/05 04:50:37;;;;;;;16.40;11.90;;;13.30;99.90;;;;;;5002882;28;20122;-65
2022/06/05 04:53:03;;;;;;;18.63;13.90;;;13.40;99.90;;;;;;5012154;28;20046;-65
2022/06/05 04:55:29;;;;;;;18.63;11.95;;;13.30;99.90;;;;;;5000692;28;20045;-66
2022/06/05 04:57:55;;;;;;;16.45;11.60;;;13.40;99.90;;;;;;5003357;28;20033;-64
2022/06/05 05:00:22;;;;;;;20.23;12.48;;;13.50;99.90;;;;;;5002578;28;20427;-65
2022/06/05 05:02:49;;;;;;;20.98;12.38;;;13.50;99.90;;;;;;4999941;28;20029;-65
2022/06/05 05:05:15;;;;;;;15.10;11.40;;;13.60;99.90;;;;;;5002867;28;20053;-65
2022/06/05 05:07:40;;;;;;;18.17;10.98;;;13.70;99.90;;;;;;5002945;28;20041;-64
2022/06/05 05:10:07;;;;;;;15.23;12.25;;;13.80;99.90;;;;;;5005291;28;20385;-66
2022/06/05 05:12:32;;;;;;;19.45;11.98;;;13.80;99.90;;;;;;5003372;28;20045;-65
2022/06/05 05:14:58;;;;;;;16.52;11.93;;;13.80;99.90;;;;;;5001667;28;20372;-65
2022/06/05 05:17:24;;;;;;;16.75;11.65;;;13.70;99.90;;;;;;5002483;28;20044;-65
2022/06/05 05:19:50;;;;;;;15.88;11.77;;;13.90;99.90;;;;;;5002569;28;20122;-64
2022/06/05 05:22:16;;;;;;;18.30;11.48;;;14.00;99.90;;;;;;5001970;28;20104;-64
2022/06/05 05:24:43;;;;;;;14.88;11.27;;;14.10;99.90;;;;;;5001652;28;20041;-64
2022/06/05 05:27:09;;;;;;;16.42;11.70;;;14.40;99.90;;;;;;5002083;28;20467;-64
2022/06/05 05:29:34;;;;;;;15.35;11.70;;;14.70;99.90;;;;;;5003387;28;20098;-65
2022/06/05 05:32:00;;;;;;;15.18;11.50;;;14.80;99.90;;;;;;5001709;28;20053;-65
2022/06/05 05:34:26;;;;;;;16.38;11.07;;;15.00;99.90;;;;;;5001982;28;20445;-65
2022/06/05 05:36:52;;;;;;;17.60;11.60;;;15.20;99.90;;;;;;5002303;28;20061;-65
2022/06/05 05:42:05;;;;;;;16.92;11.57;;;15.20;99.90;;;;;;5001287;28;20073;-65
2022/06/05 05:44:32;;;;;;;15.85;10.98;;;15.10;99.90;;;;;;5003514;28;20065;-65
2022/06/05 05:46:58;;;;;;;13.50;10.75;;;15.10;99.90;;;;;;4984716;28;20034;-65
2022/06/05 05:49:24;;;;;;;16.70;12.50;;;15.10;99.90;;;;;;4999463;28;20038;-65
2022/06/05 05:51:50;;;;;;;14.80;11.68;;;15.10;99.90;;;;;;5001751;28;20030;-65
2022/06/05 05:54:15;;;;;;;17.33;12.63;;;15.30;99.90;;;;;;4985062;28;20038;-64
2022/06/05 05:56:41;;;;;;;16.83;11.95;;;15.30;99.90;;;;;;5002050;28;20030;-65
2022/06/05 05:59:07;;;;;;;17.58;12.20;;;15.40;99.90;;;;;;5004233;28;20377;-64
2022/06/05 06:01:36;;;;;;;13.85;10.30;;;15.50;99.90;;;;;;5000176;28;20038;-64
2022/06/05 06:04:02;;;;;;;15.43;12.07;;;15.70;99.90;;;;;;5002088;28;20047;-65
2022/06/05 06:06:31;;;;;;;14.27;11.88;;;15.80;99.90;;;;;;4999019;28;20052;-64
2022/06/05 06:08:58;;;;;;;16.17;12.20;;;15.90;99.90;;;;;;5002021;28;20038;-66
2022/06/05 06:11:24;;;;;;;16.48;12.63;;;15.80;99.90;;;;;;5001356;28;20049;-65
2022/06/05 06:13:50;;;;;;;13.80;11.27;;;15.70;99.90;;;;;;5002187;28;20041;-64
2022/06/05 06:16:16;;;;;;;16.05;11.75;;;15.80;99.90;;;;;;5002654;28;20041;-64
2022/06/05 06:18:41;;;;;;;15.70;12.52;;;15.90;99.90;;;;;;5001846;28;20126;-64
2022/06/05 06:21:07;;;;;;;16.20;11.82;;;15.80;99.90;;;;;;5001929;28;20042;-64
2022/06/05 06:23:33;;;;;;;15.15;11.23;;;15.90;99.90;;;;;;5002600;28;20448;-65
2022/06/05 06:25:58;;;;;;;14.52;11.63;;;16.10;99.90;;;;;;5000878;28;20450;-64
2022/06/05 06:28:24;;;;;;;16.55;11.75;;;16.20;99.90;;;;;;5003323;28;20110;-64
2022/06/05 06:30:50;;;;;;;15.43;12.52;;;16.30;99.90;;;;;;5002555;28;20042;-65
2022/06/05 06:33:16;;;;;;;16.25;11.82;;;16.40;99.90;;;;;;4990067;28;20137;-64
2022/06/05 06:35:41;;;;;;;15.18;11.50;;;16.50;99.90;;;;;;5004712;28;20054;-64
2022/06/05 06:38:07;;;;;;;16.52;11.60;;;16.70;99.90;;;;;;4988623;28;20138;-65
2022/06/05 06:40:35;;;;;;;14.80;11.38;;;16.90;99.90;;;;;;5006280;28;20041;-64
2022/06/05 06:43:01;;;;;;;12.85;10.40;;;17.00;99.90;;;;;;5010405;28;20113;-64
2022/06/05 06:45:27;;;;;;;17.52;12.05;;;17.30;99.90;;;;;;4989424;28;20098;-63
2022/06/05 06:47:52;;;;;;;12.32;10.73;;;17.60;99.90;;;;;;5005304;28;20413;-64
2022/06/05 06:50:18;;;;;;;14.10;10.95;;;17.70;99.90;;;;;;5005976;28;20046;-66
2022/06/05 06:52:44;;;;;;;11.93;10.52;;;17.70;99.90;;;;;;5005249;28;20034;-64
2022/06/05 06:55:16;;;;;;;12.77;10.20;;;17.60;99.90;;;;;;4989543;28;20046;-66
2022/06/05 06:57:45;;;;;;;12.45;10.57;;;17.80;99.90;;;;;;4987082;28;20041;-64
2022/06/05 07:00:17;;;;;;;12.02;9.65;;;17.70;99.90;;;;;;5005339;28;20038;-65
2022/06/05 07:02:43;;;;;;;13.20;10.05;;;17.80;99.90;;;;;;5004289;28;20046;-65
2022/06/05 07:05:10;;;;;;;11.10;9.90;;;17.70;99.90;;;;;;5004264;28;20515;-65
2022/06/05 07:07:35;;;;;;;12.18;9.68;;;17.50;99.90;;;;;;5004657;28;20195;-66
2022/06/05 07:10:02;;;;;;;16.60;9.85;;;17.50;99.90;;;;;;5004614;28;20445;-64
2022/06/05 07:12:27;;;;;;;15.15;9.93;;;17.50;99.90;;;;;;5001075;28;20038;-65
2022/06/05 07:14:53;;;;;;;13.48;9.70;;;17.50;99.90;;;;;;4991516;28;20390;-64
2022/06/05 07:17:19;;;;;;;14.13;9.38;;;17.50;99.90;;;;;;5057509;28;20363;-65
2022/06/05 07:19:44;;;;;;;12.13;9.20;;;17.40;99.90;;;;;;5008488;28;20041;-65
2022/06/05 07:22:10;;;;;;;10.98;9.32;;;17.50;99.90;;;;;;5007599;28;20042;-64
2022/06/05 07:24:35;;;;;;;12.35;9.85;;;17.40;99.90;;;;;;5008732;28;20062;-64
2022/06/05 07:27:01;;;;;;;9.88;8.50;;;17.40;99.90;;;;;;4992572;28;20040;-65
2022/06/05 07:29:27;;;;;;;12.25;9.55;;;17.40;99.90;;;;;;5008683;28;20034;-64
2022/06/05 07:31:52;;;;;;;10.70;8.65;;;17.40;99.90;;;;;;5076678;28;20030;-65
2022/06/05 07:34:18;;;;;;;11.77;9.35;;;17.50;99.90;;;;;;5017243;28;20557;-66
2022/06/05 07:36:44;;;;;;;11.57;8.63;;;17.50;99.90;;;;;;5008215;28;20038;-64
2022/06/05 07:39:09;;;;;;;14.27;9.48;;;17.50;99.90;;;;;;5007813;28;20038;-65
2022/06/05 07:41:36;;;;;;;11.18;8.90;;;17.60;99.90;;;;;;5014843;28;20042;-64
2022/06/05 07:44:13;;;;;;;11.50;8.75;;;17.70;99.90;;;;;;5026357;28;20457;-67
2022/06/05 07:46:42;;;;;;;13.63;9.15;;;17.90;99.90;;;;;;5025868;28;20367;-66
2022/06/05 07:49:07;;;;;;;12.70;9.43;;;18.00;99.90;;;;;;5014511;28;20042;-66
2022/06/05 07:54:28;;;;;;;11.75;7.97;;;18.10;99.90;;;;;;5021560;28;20042;-64
2022/06/05 07:56:56;;;;;;;10.20;8.38;;;18.30;99.90;;;;;;5005158;28;20077;-63
2022/06/05 07:59:22;;;;;;;9.55;8.13;;;18.50;99.90;;;;;;5003996;28;20045;-67
2022/06/05 08:01:48;;;;;;;10.35;9.18;;;18.50;99.90;;;;;;5001386;28;20096;-65
2022/06/05 08:04:14;;;;;;;10.55;8.80;;;18.50;99.90;;;;;;5018446;28;20382;-62
2022/06/05 08:06:40;;;;;;;10.73;8.77;;;18.60;99.90;;;;;;5009864;28;20057;-65
2022/06/05 08:09:07;;;;;;;12.40;9.02;;;18.60;99.90;;;;;;5010924;28;20414;-64
2022/06/05 08:11:33;;;;;;;10.15;8.57;;;18.80;99.90;;;;;;5003014;28;20363;-64
2022/06/05 08:14:00;;;;;;;12.82;8.80;;;18.90;99.90;;;;;;5017626;28;20048;-66
2022/06/05 08:16:26;;;;;;;10.35;8.65;;;18.90;99.90;;;;;;5003864;28;20038;-65
2022/06/05 08:18:52;;;;;;;10.57;8.27;;;19.00;99.90;;;;;;5004701;28;20053;-64
2022/06/05 08:21:19;;;;;;;10.13;8.70;;;19.10;99.90;;;;;;5002865;28;20499;-64
2022/06/05 08:23:45;;;;;;;9.52;8.00;;;19.30;99.90;;;;;;5020151;28;20029;-64
2022/06/05 08:26:10;;;;;;;10.57;8.32;;;19.40;99.90;;;;;;5002359;28;20487;-65
2022/06/05 08:28:36;;;;;;;8.52;7.63;;;19.50;99.90;;;;;;5004380;28;20073;-64
2022/06/05 08:31:02;;;;;;;8.98;7.50;;;19.80;99.90;;;;;;5003027;28;20042;-65
2022/06/05 08:33:28;;;;;;;8.93;7.57;;;19.90;99.90;;;;;;5015367;28;20067;-66
2022/06/05 08:35:54;;;;;;;9.40;7.70;;;20.00;99.90;;;;;;5003358;28;20078;-65
2022/06/05 08:41:29;;;;;;;9.45;8.07;;;20.30;99.90;;;;;;5002679;28;20412;-65
2022/06/05 08:44:04;;;;;;;11.57;8.40;;;20.40;99.90;;;;;;5008533;28;20373;-65
2022/06/05 08:46:32;;;;;;;8.40;7.35;;;20.50;99.90;;;;;;5002323;28;20042;-66
2022/06/05 08:49:04;;;;;;;9.73;7.20;;;20.70;99.90;;;;;;5004671;28;20049;-64
2022/06/05 08:51:38;;;;;;;9.43;7.75;;;20.90;99.90;;;;;;5000894;28;20061;-65
2022/06/05 08:54:11;;;;;;;9.40;7.13;;;21.10;99.90;;;;;;5000478;28;20104;-65
2022/06/05 08:56:41;;;;;;;11.40;7.60;;;21.20;99.90;;;;;;5004161;28;20454;-65
2022/06/05 08:59:23;;;;;;;9.70;7.32;;;21.30;99.90;;;;;;4986379;28;20072;-65
2022/06/05 09:01:58;;;;;;;8.50;7.57;;;21.40;99.90;;;;;;5002561;28;20041;-66
2022/06/05 09:04:44;;;;;;;11.45;7.95;;;21.60;99.90;;;;;;5012613;28;20133;-64
2022/06/05 09:07:15;;;;;;;11.52;8.05;;;21.60;99.90;;;;;;5001857;28;20327;-66
2022/06/05 09:10:02;;;;;;;7.95;6.72;;;21.70;99.90;;;;;;5005303;28;20041;-65
2022/06/05 09:12:54;;;;;;;8.02;6.75;;;21.80;99.90;;;;;;5002771;28;20037;-65
2022/06/05 09:15:35;;;;;;;8.57;7.30;;;21.90;99.90;;;;;;5005615;28;20069;-65
2022/06/05 09:18:06;;;;;;;9.95;7.40;;;22.00;99.90;;;;;;5002320;28;20409;-65
2022/06/05 09:20:51;;;;;;;8.10;6.63;;;22.10;99.90;;;;;;5001366;28;20034;-65
2022/06/05 09:23:23;;;;;;;11.23;7.57;;;22.20;99.90;;;;;;5012680;28;20124;-65
2022/06/05 09:26:02;;;;;;;10.15;7.00;;;22.30;99.90;;;;;;5002932;28;20106;-64
2022/06/05 09:28:50;;;;;;;12.60;7.15;;;22.30;99.90;;;;;;5002046;28;20052;-65
2022/06/05 09:31:24;;;;;;;7.00;6.22;;;22.30;99.90;;;;;;5001543;28;20466;-64
2022/06/05 09:33:54;;;;;;;9.80;6.97;;;22.40;99.90;;;;;;5006409;28;20085;-64
2022/06/05 09:36:23;;;;;;;9.48;7.47;;;22.50;99.90;;;;;;5005248;28;20042;-68
2022/06/05 09:38:55;;;;;;;10.70;7.15;;;22.50;99.90;;;;;;4988114;28;20099;-64
2022/06/05 09:41:58;;;;;;;9.45;7.10;;;22.50;99.90;;;;;;5026964;28;20623;-64
2022/06/05 09:44:46;;;;;;;9.88;6.50;;;22.70;99.90;;;;;;5034384;28;20038;-65
2022/06/05 09:47:28;;;;;;;7.80;6.20;;;22.80;99.90;;;;;;5012622;28;20462;-65
2022/06/05 09:49:59;;;;;;;9.13;6.90;;;22.80;99.90;;;;;;5047573;28;20063;-66
2022/06/05 09:52:31;;;;;;;8.95;6.53;;;23.00;99.90;;;;;;5048500;28;20034;-65
2022/06/05 09:55:11;;;;;;;7.45;5.97;;;23.00;99.90;;;;;;5035837;28;20462;-65
2022/06/05 10:00:37;;;;;;;7.97;6.60;;;23.10;99.90;;;;;;5002087;28;20038;-64
2022/06/05 10:03:11;;;;;;;7.10;6.40;;;23.10;99.90;;;;;;5003058;28;20166;-67
2022/06/05 10:05:40;;;;;;;8.20;6.60;;;23.10;99.90;;;;;;4993924;28;20051;-66
2022/06/05 10:08:26;;;;;;;8.13;6.43;;;23.10;99.90;;;;;;5021542;28;20484;-64
2022/06/05 10:10:57;;;;;;;7.28;6.13;;;23.20;99.90;;;;;;5012317;28;20087;-64
2022/06/05 10:13:44;;;;;;;8.20;7.00;;;23.30;99.90;;;;;;5025619;28;20093;-65
2022/06/05 10:16:25;;;;;;;7.60;6.63;;;23.30;99.90;;;;;;5010713;28;20121;-65
2022/06/05 10:19:07;;;;;;;8.38;6.63;;;23.30;99.90;;;;;;5011306;28;20034;-64
2022/06/05 10:21:38;;;;;;;8.05;6.28;;;23.30;99.90;;;;;;5004976;28;20463;-64
2022/06/05 10:24:03;;;;;;;8.23;6.22;;;23.40;99.90;;;;;;5004627;28;20045;-65
2022/06/05 10:26:39;;;;;;;8.48;6.32;;;23.50;99.90;;;;;;5002877;28;20067;-66
2022/06/05 10:29:20;;;;;;;7.93;6.28;;;23.60;99.90;;;;;;5010668;28;20030;-67
2022/06/05 10:32:09;;;;;;;7.15;6.45;;;23.60;99.90;;;;;;5005549;28;20038;-64
2022/06/05 10:34:46;;;;;;;10.15;7.40;;;23.70;99.90;;;;;;5012272;28;20375;-64
2022/06/05 10:37:34;;;;;;;8.73;7.43;;;23.60;99.90;;;;;;5003728;28;20467;-64
2022/06/05 10:40:08;;;;;;;10.20;6.68;;;23.50;99.90;;;;;;5004441;28;20038;-65
2022/06/05 10:42:45;;;;;;;8.82;6.68;;;23.50;99.90;;;;;;5024027;28;20034;-69
2022/06/05 10:45:17;;;;;;;8.65;7.75;;;23.50;99.90;;;;;;5008877;28;20103;-65
2022/06/05 10:48:00;;;;;;;10.32;7.20;;;23.40;99.90;;;;;;5015968;28;20061;-64
2022/06/05 10:50:34;;;;;;;8.75;6.88;;;23.40;99.90;;;;;;5005667;28;20042;-64
2022/06/05 10:53:21;;;;;;;9.63;6.43;;;23.40;99.90;;;;;;5005690;28;20037;-65
2022/06/05 10:56:18;;;;;;;9.80;7.38;;;23.40;99.90;;;;;;5006009;28;20038;-64
2022/06/05 10:58:43;;;;;;;9.43;6.97;;;23.40;99.90;;;;;;5003510;28;20068;-65
2022/06/05 11:01:12;;;;;;;8.95;6.60;;;23.30;99.90;;;;;;5006029;28;20642;-64
2022/06/05 11:04:04;;;;;;;8.35;6.63;;;23.40;99.90;;;;;;5010074;28;20074;-63
2022/06/05 11:06:51;;;;;;;9.20;7.10;;;23.40;99.90;;;;;;5005595;28;20067;-64
2022/06/05 11:09:41;;;;;;;7.88;6.45;;;23.40;99.90;;;;;;5002334;28;20057;-64
2022/06/05 11:15:09;;;;;;;8.98;6.28;;;23.30;99.90;;;;;;5011671;28;20038;-65
2022/06/05 11:17:45;;;;;;;8.68;6.38;;;23.40;99.90;;;;;;5002351;28;20045;-64
2022/06/05 11:20:21;;;;;;;8.13;7.20;;;23.40;99.90;;;;;;5000591;28;20038;-65
2022/06/05 11:22:56;;;;;;;10.10;7.03;;;23.40;99.90;;;;;;5003756;28;20041;-65
2022/06/05 11:25:32;;;;;;;8.35;6.35;;;23.40;99.90;;;;;;5011111;28;20085;-64
2022/06/05 11:28:08;;;;;;;8.43;5.75;;;23.40;99.90;;;;;;5003854;28;20133;-65
2022/06/05 11:30:52;;;;;;;6.93;6.22;;;23.40;99.90;;;;;;5003277;28;20191;-66
2022/06/05 11:33:23;;;;;;;8.70;6.28;;;23.40;99.90;;;;;;5006932;28;20480;-65
2022/06/05 11:36:14;;;;;;;8.82;7.18;;;23.50;99.90;;;;;;5005495;28;20109;-65
2022/06/05 11:39:06;;;;;;;8.30;7.13;;;23.50;99.90;;;;;;5009007;28;20418;-65
2022/06/05 11:41:36;;;;;;;7.28;6.45;;;23.50;99.90;;;;;;5005060;28;20318;-64
2022/06/05 11:44:37;;;;;;;7.10;6.40;;;23.60;99.90;;;;;;5016419;28;20485;-67
2022/06/05 11:47:08;;;;;;;8.65;7.55;;;23.50;99.90;;;;;;5013066;28;20081;-66
2022/06/05 11:49:38;;;;;;;9.73;7.15;;;23.60;99.90;;;;;;5045637;28;20034;-66
2022/06/05 11:52:18;;;;;;;8.45;6.70;;;23.50;99.90;;;;;;5008668;28;20073;-67
2022/06/05 11:55:20;;;;;;;7.53;6.78;;;23.50;99.90;;;;;;5013664;28;20038;-67
2022/06/05 11:57:50;;;;;;;7.75;6.50;;;23.50;99.90;;;;;;5008700;28;20034;-65
2022/06/05 12:00:46;;;;;;;8.40;6.97;;;23.50;99.90;;;;;;5009484;28;20056;-67
2022/06/05 12:03:31;;;;;;;8.20;7.40;;;23.50;99.90;;;;;;5009432;28;20148;-64
2022/06/05 12:06:16;;;;;;;8.50;7.60;;;23.60;99.90;;;;;;5055414;28;20035;-65
2022/06/05 12:08:50;;;;;;;8.43;6.57;;;23.40;99.90;;;;;;5010961;28;20707;-65
2022/06/05 12:11:45;;;;;;;8.65;7.18;;;23.50;99.90;;;;;;5011311;28;20052;-66
2022/06/05 12:14:26;;;;;;;9.85;7.47;;;23.50;99.90;;;;;;5029955;28;20038;-65
2022/06/05 12:17:02;;;;;;;9.07;7.20;;;23.50;99.90;;;;;;5079883;28;20040;-65
2022/06/05 12:19:34;;;;;;;9.60;7.15;;;23.50;99.90;;;;;;5057929;28;20090;-65
2022/06/05 12:22:11;;;;;;;8.77;6.85;;;23.50;99.90;;;;;;5002333;28;20049;-65
2022/06/05 12:25:20;;;;;;;8.77;6.82;;;23.70;99.90;;;;;;5009088;28;20040;-65
2022/06/05 12:27:55;;;;;;;9.43;7.30;;;23.60;99.90;;;;;;5008416;28;20037;-65
2022/06/05 12:30:34;;;;;;;8.73;7.35;;;23.60;99.90;;;;;;5013553;28;20046;-65
2022/06/05 12:33:13;;;;;;;8.30;7.00;;;23.60;99.90;;;;;;5005086;28;20033;-66
2022/06/05 12:35:44;;;;;;;7.65;6.93;;;23.60;99.90;;;;;;5009695;28;20041;-65
2022/06/05 12:38:32;;;;;;;8.98;6.78;;;23.60;99.90;;;;;;5005046;28;20042;-65
2022/06/05 12:41:06;;;;;;;12.48;6.80;;;23.70;99.90;;;;;;5005530;28;20514;-66
2022/06/05 12:43:53;;;;;;;8.60;6.45;;;23.60;99.90;;;;;;5006283;28;20045;-65
2022/06/05 12:46:31;;;;;;;9.55;7.15;;;23.80;99.90;;;;;;5004782;28;20049;-65
2022/06/05 12:49:23;;;;;;;7.03;6.32;;;23.90;99.90;;;;;;5005923;28;20065;-66
2022/06/05 12:52:01;;;;;;;7.80;6.10;;;24.00;99.90;;;;;;5004547;28;20124;-66
2022/06/05 12:54:38;;;;;;;7.03;6.20;;;24.00;99.90;;;;;;4994568;28;20121;-65
2022/06/05 12:57:11;;;;;;;7.43;6.15;;;24.30;99.90;;;;;;5005208;28;20077;-65
2022/06/05 12:59:47;;;;;;;;;;;24.40;99.90;;;;;;5005097;28;20113;-67
2022/06/05 13:02:36;;;;;;;7.53;6.78;;;24.50;99.90;;;;;;5003295;28;19918;-65
2022/06/05 13:05:32;;;;;;;8.52;5.95;;;24.40;99.90;;;;;;5004464;28;20053;-65
2022/06/05 13:08:05;;;;;;;8.30;6.32;;;24.30;99.90;;;;;;5001451;28;20455;-67
2022/06/05 13:10:41;;;;;;;6.00;5.40;;;24.40;99.90;;;;;;5002351;28;20042;-66
2022/06/05 13:13:13;;;;;;;9.38;5.82;;;24.40;99.90;;;;;;5005262;28;20034;-65
2022/06/05 13:16:01;;;;;;;7.15;5.90;;;24.60;99.90;;;;;;5018659;28;20054;-66
2022/06/05 13:18:33;;;;;;;7.32;5.93;;;24.70;99.90;;;;;;5004819;28;20091;-65
2022/06/05 13:21:23;;;;;;;6.68;5.97;;;24.60;99.90;;;;;;4985231;28;20072;-67
2022/06/05 13:24:27;;;;;;;8.50;5.80;;;24.70;99.90;;;;;;5018287;28;20044;-66
2022/06/05 13:27:11;;;;;;;7.87;5.70;;;24.70;99.90;;;;;;5011419;28;20052;-65